Time;durP1;ratioP1;P1;durP2;ratioP2;P2;SDS_P1;SDS_P2;PMS_P1;PMS_P2;Temp;Humidity;BMP_temperature;BMP_pressure;BME280_temperature;BME280_humidity;BME280_pressure;Samples;Min_cycle;Max_cycle;Signal;HPM_P1;HPM_P2
2022/12/11 00:01:10;;;;;;;43.85;21.92;;;0.10;99.90;;;;;;5067227;28;20514;-74
2022/12/11 00:03:36;;;;;;;42.08;21.98;;;0.10;99.90;;;;;;5066063;28;20495;-74
2022/12/11 00:06:06;;;;;;;48.88;23.52;;;0.20;99.90;;;;;;5088512;28;20047;-74
2022/12/11 00:08:31;;;;;;;48.67;23.98;;;0.20;99.90;;;;;;5083616;28;20757;-74
2022/12/11 00:10:57;;;;;;;50.53;23.42;;;0.10;99.90;;;;;;5089620;28;20146;-74
2022/12/11 00:13:22;;;;;;;52.95;24.85;;;0.10;99.90;;;;;;5069943;28;20089;-74
2022/12/11 00:15:48;;;;;;;44.60;21.08;;;0.10;99.90;;;;;;5070260;28;20063;-74
2022/12/11 00:18:14;;;;;;;47.58;21.88;;;0.20;99.90;;;;;;5068909;28;20055;-73
2022/12/11 00:20:39;;;;;;;46.95;22.60;;;0.10;99.90;;;;;;5069127;28;20044;-74
2022/12/11 00:23:05;;;;;;;49.53;22.88;;;0.20;99.90;;;;;;5067262;28;20048;-74
2022/12/11 00:25:31;;;;;;;49.05;24.38;;;0.20;99.90;;;;;;5088208;28;20499;-74
2022/12/11 00:27:56;;;;;;;52.22;24.52;;;0.20;99.90;;;;;;5063807;28;20479;-74
2022/12/11 00:30:22;;;;;;;53.28;23.75;;;0.30;99.90;;;;;;5065528;28;20694;-74
2022/12/11 00:32:50;;;;;;;45.38;21.45;;;0.30;99.90;;;;;;5085834;28;20039;-74
2022/12/11 00:35:15;;;;;;;46.08;21.00;;;0.30;99.90;;;;;;5076686;28;20115;-74
2022/12/11 00:37:41;;;;;;;42.40;21.10;;;0.30;99.90;;;;;;5068813;28;20123;-74
2022/12/11 00:40:07;;;;;;;40.65;19.35;;;0.30;99.90;;;;;;5084531;28;20051;-74
2022/12/11 00:42:33;;;;;;;44.25;20.00;;;0.30;99.90;;;;;;5067936;28;20408;-73
2022/12/11 00:44:58;;;;;;;42.33;20.13;;;0.40;99.90;;;;;;5085234;28;20039;-74
2022/12/11 00:47:24;;;;;;;42.53;20.42;;;0.40;99.90;;;;;;5064786;28;20127;-74
2022/12/11 00:49:50;;;;;;;40.00;19.25;;;0.40;99.90;;;;;;5084079;28;20054;-73
2022/12/11 00:52:16;;;;;;;43.58;19.92;;;0.40;99.90;;;;;;5067592;28;20503;-74
2022/12/11 00:54:42;;;;;;;43.28;20.35;;;0.40;99.90;;;;;;5085630;28;20039;-74
2022/12/11 00:57:08;;;;;;;43.63;21.17;;;0.50;99.90;;;;;;5086705;28;20040;-74
2022/12/11 00:59:33;;;;;;;46.90;21.13;;;0.50;99.90;;;;;;5087935;28;20118;-73
2022/12/11 01:01:59;;;;;;;44.35;20.75;;;0.50;99.90;;;;;;5086880;28;20717;-74
2022/12/11 01:04:24;;;;;;;42.17;21.27;;;0.50;99.90;;;;;;5088838;28;20404;-74
2022/12/11 01:06:50;;;;;;;43.78;21.15;;;0.50;99.90;;;;;;5085957;28;20134;-73
2022/12/11 01:12:00;;;;;;;46.45;21.15;;;0.50;99.90;;;;;;5080862;28;20127;-74
2022/12/11 01:14:26;;;;;;;38.30;18.85;;;0.50;99.90;;;;;;5088276;28;20559;-74
2022/12/11 01:16:51;;;;;;;41.80;19.23;;;0.50;99.90;;;;;;5099730;28;20046;-73
2022/12/11 01:19:17;;;;;;;35.75;17.35;;;0.60;99.90;;;;;;5087718;28;20032;-74
2022/12/11 01:21:42;;;;;;;40.42;18.45;;;0.50;99.90;;;;;;5084798;28;20266;-74
2022/12/11 01:24:08;;;;;;;41.13;19.30;;;0.60;99.90;;;;;;5083270;28;20555;-74
2022/12/11 01:26:34;;;;;;;41.78;18.85;;;0.60;99.90;;;;;;5068052;28;20067;-74
2022/12/11 01:29:00;;;;;;;38.13;18.90;;;0.60;99.90;;;;;;5079907;28;20530;-74
2022/12/11 01:31:26;;;;;;;38.22;19.58;;;0.60;99.90;;;;;;5083917;28;20036;-74
2022/12/11 01:33:54;;;;;;;39.38;20.63;;;0.60;99.90;;;;;;5069199;28;20437;-74
2022/12/11 01:36:21;;;;;;;45.88;20.77;;;0.60;99.90;;;;;;5068513;28;20044;-74
2022/12/11 01:38:48;;;;;;;45.58;21.45;;;0.60;99.90;;;;;;5083284;28;20485;-74
2022/12/11 01:41:15;;;;;;;43.45;20.67;;;0.70;99.90;;;;;;5052336;28;20082;-74
2022/12/11 01:43:56;;;;;;;41.17;20.67;;;0.60;99.90;;;;;;5064822;28;20410;-74
2022/12/11 01:46:22;;;;;;;48.28;20.63;;;0.60;99.90;;;;;;5066953;28;20052;-74
2022/12/11 01:48:47;;;;;;;46.92;21.77;;;0.60;99.90;;;;;;5085823;28;20036;-74
2022/12/11 01:51:13;;;;;;;46.42;21.42;;;0.70;99.90;;;;;;5066602;28;20047;-74
2022/12/11 01:53:49;;;;;;;49.20;22.02;;;0.60;99.90;;;;;;5086599;28;20619;-74
2022/12/11 01:56:15;;;;;;;51.70;21.50;;;0.70;99.90;;;;;;5065500;28;20475;-74
2022/12/11 01:58:47;;;;;;;47.30;20.88;;;0.60;99.90;;;;;;5083492;28;20032;-74
2022/12/11 02:01:21;;;;;;;48.85;21.80;;;0.60;99.90;;;;;;5081136;28;20721;-73
2022/12/11 02:03:47;;;;;;;47.70;22.27;;;0.70;99.90;;;;;;5080525;28;20052;-74
2022/12/11 02:06:36;;;;;;;50.25;22.65;;;0.60;99.90;;;;;;5083564;28;20098;-74
2022/12/11 02:09:06;;;;;;;46.95;21.42;;;0.70;99.90;;;;;;5097006;28;20111;-74
2022/12/11 02:11:54;;;;;;;49.80;21.85;;;0.70;99.90;;;;;;5070039;28;20071;-74
2022/12/11 02:14:43;;;;;;;50.60;22.77;;;0.70;99.90;;;;;;5068077;28;20043;-73
2022/12/11 02:17:27;;;;;;;46.05;21.73;;;0.70;99.90;;;;;;5080832;28;20048;-74
2022/12/11 02:20:20;;;;;;;49.60;22.30;;;0.70;99.90;;;;;;5076632;28;20052;-74
2022/12/11 02:22:55;;;;;;;45.47;20.88;;;0.70;99.90;;;;;;5067899;28;20044;-74
2022/12/11 02:25:49;;;;;;;44.08;21.08;;;0.70;99.90;;;;;;5065897;28;20491;-74
2022/12/11 02:28:28;;;;;;;42.95;19.90;;;0.70;99.90;;;;;;5068319;28;20071;-74
2022/12/11 02:31:14;;;;;;;48.10;20.48;;;0.70;99.90;;;;;;5060735;28;20054;-73
2022/12/11 02:34:04;;;;;;;41.05;19.83;;;0.70;99.90;;;;;;5081488;28;20126;-73
2022/12/11 02:36:39;;;;;;;45.92;20.10;;;0.70;99.90;;;;;;5054863;28;20075;-74
2022/12/11 02:39:07;;;;;;;45.08;21.17;;;0.70;99.90;;;;;;5066034;28;20565;-74
2022/12/11 02:41:33;;;;;;;47.80;21.05;;;0.60;99.90;;;;;;5067348;28;20040;-74
2022/12/11 02:44:02;;;;;;;49.40;21.65;;;0.70;99.90;;;;;;5084111;28;20039;-72
2022/12/11 02:46:30;;;;;;;44.90;21.27;;;0.70;99.90;;;;;;5086093;28;20040;-74
2022/12/11 02:48:56;;;;;;;47.30;21.83;;;0.70;99.90;;;;;;5095140;28;20130;-74
2022/12/11 02:51:32;;;;;;;45.30;21.13;;;0.70;99.90;;;;;;5064177;28;20162;-74
2022/12/11 02:53:59;;;;;;;44.13;22.23;;;0.80;99.90;;;;;;5062609;28;20295;-74
2022/12/11 02:56:40;;;;;;;48.05;22.77;;;0.80;99.90;;;;;;5061995;28;20029;-74
2022/12/11 02:59:12;;;;;;;45.75;21.65;;;0.80;99.90;;;;;;5064011;28;20044;-74
2022/12/11 03:01:38;;;;;;;47.53;20.85;;;0.80;99.90;;;;;;5062348;28;20056;-74
2022/12/11 03:04:04;;;;;;;43.00;20.15;;;0.80;99.90;;;;;;5062276;28;20098;-74
2022/12/11 03:06:41;;;;;;;45.53;20.25;;;0.80;99.90;;;;;;5061671;28;20036;-74
2022/12/11 03:09:07;;;;;;;40.38;19.45;;;0.80;99.90;;;;;;5062945;28;20061;-73
2022/12/11 03:11:33;;;;;;;44.45;21.05;;;0.80;99.90;;;;;;5063583;28;20044;-73
2022/12/11 03:14:01;;;;;;;39.33;19.85;;;0.80;99.90;;;;;;5060698;28;20047;-74
2022/12/11 03:16:41;;;;;;;42.97;20.75;;;0.90;99.90;;;;;;5063353;28;20045;-74
2022/12/11 03:19:36;;;;;;;39.17;19.75;;;0.90;99.90;;;;;;5096221;28;20048;-74
2022/12/11 03:22:01;;;;;;;42.45;19.65;;;0.90;99.90;;;;;;5058424;28;20079;-74
2022/12/11 03:24:42;;;;;;;42.60;20.00;;;0.90;99.90;;;;;;5061578;28;20052;-74
2022/12/11 03:27:29;;;;;;;47.83;20.73;;;0.90;99.90;;;;;;5064923;28;20310;-74
2022/12/11 03:30:00;;;;;;;42.03;19.13;;;0.90;99.90;;;;;;5058225;28;20090;-73
2022/12/11 03:32:35;;;;;;;45.50;20.88;;;0.90;99.90;;;;;;5061454;28;20131;-74
2022/12/11 03:35:14;;;;;;;47.00;21.45;;;0.90;99.90;;;;;;5066369;28;20051;-74
2022/12/11 03:37:41;;;;;;;48.50;21.13;;;0.90;99.90;;;;;;5062955;28;20052;-74
2022/12/11 03:40:12;;;;;;;41.35;20.70;;;0.90;99.90;;;;;;5065053;28;20044;-74
2022/12/11 03:42:38;;;;;;;45.75;20.52;;;0.90;99.90;;;;;;5067167;28;20495;-74
2022/12/11 03:45:05;;;;;;;48.83;21.35;;;1.00;99.90;;;;;;5064249;28;20052;-74
2022/12/11 03:47:32;;;;;;;48.63;20.95;;;1.00;99.90;;;;;;5067539;28;20531;-73
2022/12/11 03:50:00;;;;;;;47.65;21.83;;;1.00;99.90;;;;;;5082337;28;20063;-74
2022/12/11 03:52:28;;;;;;;44.85;21.38;;;1.00;99.90;;;;;;5067683;28;20046;-74
2022/12/11 03:54:56;;;;;;;47.47;21.33;;;1.00;99.90;;;;;;5103970;27;20044;-74
2022/12/11 03:57:27;;;;;;;48.58;22.73;;;1.00;99.90;;;;;;5063169;28;20048;-73
2022/12/11 03:59:53;;;;;;;47.38;20.80;;;1.00;99.90;;;;;;5086573;28;20631;-74
2022/12/11 04:02:19;;;;;;;49.25;21.73;;;1.00;99.90;;;;;;5067639;28;20040;-76
2022/12/11 04:04:44;;;;;;;47.30;21.42;;;1.00;99.90;;;;;;5086233;28;20460;-76
2022/12/11 04:07:10;;;;;;;46.10;22.25;;;1.00;99.90;;;;;;5067458;28;20044;-76
2022/12/11 04:09:36;;;;;;;49.10;22.67;;;1.00;99.90;;;;;;5088502;28;20444;-76
2022/12/11 04:12:02;;;;;;;48.78;22.10;;;1.00;99.90;;;;;;5086858;28;20056;-75
2022/12/11 04:24:13;;;;;;;54.20;21.95;;;1.00;99.90;;;;;;5066022;28;20040;-76
2022/12/11 04:25:30;;;;;;;55.75;23.15;;;1.00;99.90;;;;;;5058904;28;20131;-76
2022/12/11 04:27:55;;;;;;;55.17;23.13;;;1.00;99.90;;;;;;5065397;28;20078;-76
2022/12/11 04:30:24;;;;;;;51.92;23.48;;;1.00;99.90;;;;;;5086251;28;20044;-76
2022/12/11 04:32:52;;;;;;;54.88;22.92;;;1.00;99.90;;;;;;5085151;28;20044;-76
2022/12/11 04:35:18;;;;;;;52.55;23.30;;;1.00;99.90;;;;;;5089541;28;20032;-76
2022/12/11 04:37:43;;;;;;;53.45;24.65;;;1.00;99.90;;;;;;5065802;28;20078;-76
2022/12/11 04:40:13;;;;;;;54.28;23.60;;;1.10;99.90;;;;;;5066255;28;20047;-76
2022/12/11 04:42:39;;;;;;;59.53;24.70;;;1.00;99.90;;;;;;5086102;28;20070;-76
2022/12/11 04:45:07;;;;;;;61.03;25.05;;;1.10;99.90;;;;;;5087431;28;20471;-76
2022/12/11 04:47:34;;;;;;;59.38;24.63;;;1.10;99.90;;;;;;5076898;28;20059;-76
2022/12/11 04:50:00;;;;;;;67.00;26.05;;;1.00;99.90;;;;;;5087203;28;20066;-76
2022/12/11 04:52:26;;;;;;;59.03;23.48;;;1.00;99.90;;;;;;5067894;28;20431;-76
2022/12/11 04:54:51;;;;;;;60.92;23.85;;;1.00;99.90;;;;;;5088717;28;20105;-76
2022/12/11 04:57:19;;;;;;;60.25;25.67;;;1.00;99.90;;;;;;5085704;28;20075;-76
2022/12/11 04:59:45;;;;;;;60.95;25.25;;;1.10;99.90;;;;;;5088323;28;20403;-76
2022/12/11 05:02:10;;;;;;;63.25;25.13;;;1.00;99.90;;;;;;5081029;28;20040;-76
2022/12/11 05:04:36;;;;;;;61.08;26.17;;;1.00;99.90;;;;;;5066262;28;20126;-76
2022/12/11 05:07:02;;;;;;;62.30;25.05;;;1.00;99.90;;;;;;5084245;28;20035;-76
2022/12/11 05:09:28;;;;;;;56.65;24.58;;;1.00;99.90;;;;;;5067504;28;20084;-76
2022/12/11 05:11:54;;;;;;;70.15;26.83;;;1.00;99.90;;;;;;5086074;28;20044;-76
2022/12/11 05:14:20;;;;;;;56.38;25.85;;;1.00;99.90;;;;;;5069511;28;20547;-76
2022/12/11 05:16:46;;;;;;;60.20;25.92;;;1.00;99.90;;;;;;5085869;28;20136;-76
2022/12/11 05:19:12;;;;;;;54.67;24.75;;;1.00;99.90;;;;;;5086527;28;20040;-76
2022/12/11 05:21:37;;;;;;;64.35;25.77;;;1.00;99.90;;;;;;5064360;28;20054;-76
2022/12/11 05:24:03;;;;;;;58.88;25.27;;;1.00;99.90;;;;;;5100122;28;20363;-76
2022/12/11 05:26:29;;;;;;;60.50;25.00;;;1.00;99.90;;;;;;5086093;28;20044;-75
2022/12/11 05:28:55;;;;;;;61.85;24.77;;;1.00;99.90;;;;;;5080872;28;20429;-76
2022/12/11 05:31:23;;;;;;;56.72;25.58;;;1.00;99.90;;;;;;5067166;28;20039;-76
2022/12/11 05:33:50;;;;;;;55.17;24.13;;;1.10;99.90;;;;;;5064543;28;20483;-76
2022/12/11 05:36:18;;;;;;;61.50;25.92;;;1.10;99.90;;;;;;5063652;28;20058;-76
2022/12/11 05:38:44;;;;;;;61.80;26.67;;;1.10;99.90;;;;;;5085718;28;20040;-76
2022/12/11 05:41:13;;;;;;;58.33;25.33;;;1.10;99.90;;;;;;5086211;28;20355;-76
2022/12/11 05:43:38;;;;;;;58.67;25.95;;;1.10;99.90;;;;;;5085123;28;20044;-76
2022/12/11 05:46:10;;;;;;;56.17;25.90;;;1.10;99.90;;;;;;5066485;28;20075;-76
2022/12/11 05:48:37;;;;;;;54.63;25.60;;;1.10;99.90;;;;;;5086592;28;20066;-76
2022/12/11 05:51:04;;;;;;;64.93;26.00;;;1.10;99.90;;;;;;5082933;28;20515;-76
2022/12/11 05:53:30;;;;;;;55.13;24.27;;;1.00;99.90;;;;;;5081409;28;20298;-76
2022/12/11 05:56:02;;;;;;;59.13;25.77;;;1.10;99.90;;;;;;5086534;28;20140;-76
2022/12/11 05:58:28;;;;;;;61.63;25.27;;;1.10;99.90;;;;;;5083807;28;20479;-76
2022/12/11 06:00:54;;;;;;;60.60;24.10;;;1.00;99.90;;;;;;5066461;28;20373;-76
2022/12/11 06:03:20;;;;;;;54.08;25.05;;;1.10;99.90;;;;;;5098652;28;20043;-76
2022/12/11 06:05:45;;;;;;;57.47;25.58;;;1.10;99.90;;;;;;5067660;28;20056;-76
2022/12/11 06:08:11;;;;;;;58.42;26.58;;;1.10;99.90;;;;;;5065512;28;20039;-76
2022/12/11 06:10:37;;;;;;;56.38;25.52;;;1.10;99.90;;;;;;5066256;28;20071;-76
2022/12/11 06:13:02;;;;;;;59.78;25.02;;;1.20;99.90;;;;;;5093399;28;20517;-76
2022/12/11 06:15:28;;;;;;;60.20;25.30;;;1.10;99.90;;;;;;5068349;28;20044;-76
2022/12/11 06:17:54;;;;;;;56.10;24.88;;;1.10;99.90;;;;;;5066783;28;20368;-76
2022/12/11 06:20:19;;;;;;;60.25;26.38;;;1.10;99.90;;;;;;5068407;28;20069;-76
2022/12/11 06:22:45;;;;;;;59.47;24.90;;;1.10;99.90;;;;;;5083229;28;20044;-77
2022/12/11 06:25:11;;;;;;;60.75;27.63;;;1.10;99.90;;;;;;5063636;28;20040;-77
2022/12/11 06:27:36;;;;;;;54.60;26.08;;;1.10;99.90;;;;;;5066211;28;20039;-77
2022/12/11 06:30:02;;;;;;;60.95;27.38;;;1.10;99.90;;;;;;5057361;28;21091;-76
2022/12/11 06:32:28;;;;;;;66.10;27.27;;;1.10;99.90;;;;;;5100049;28;20406;-77
2022/12/11 06:34:53;;;;;;;64.10;28.58;;;1.10;99.90;;;;;;5085920;28;20044;-77
2022/12/11 06:37:19;;;;;;;65.10;28.55;;;1.10;99.90;;;;;;5083246;28;20032;-76
2022/12/11 06:39:45;;;;;;;64.25;27.45;;;1.10;99.90;;;;;;5074286;28;20044;-76
2022/12/11 06:42:10;;;;;;;66.53;29.08;;;1.10;99.90;;;;;;5084931;28;20050;-75
2022/12/11 06:44:36;;;;;;;61.22;26.70;;;1.10;99.90;;;;;;5084924;28;20040;-78
2022/12/11 06:47:02;;;;;;;65.65;26.98;;;1.10;99.90;;;;;;5063993;28;20074;-78
2022/12/11 06:49:29;;;;;;;60.17;27.23;;;1.10;99.90;;;;;;5084687;28;20048;-78
2022/12/11 06:51:54;;;;;;;61.00;27.02;;;1.10;99.90;;;;;;5081590;28;20109;-77
2022/12/11 06:54:25;;;;;;;58.90;26.02;;;1.20;99.90;;;;;;5080031;28;20039;-77
2022/12/11 06:56:51;;;;;;;59.30;26.70;;;1.20;99.90;;;;;;5063296;28;20050;-77
2022/12/11 06:59:17;;;;;;;63.35;27.30;;;1.20;99.90;;;;;;5064633;28;20500;-78
2022/12/11 07:01:44;;;;;;;63.22;26.90;;;1.20;99.90;;;;;;5082867;28;20036;-77
2022/12/11 07:04:09;;;;;;;54.72;24.42;;;1.20;99.90;;;;;;5063243;28;20556;-77
2022/12/11 07:06:35;;;;;;;59.40;25.83;;;1.20;99.90;;;;;;5070523;28;20165;-77
2022/12/11 07:09:05;;;;;;;57.30;25.00;;;1.10;99.90;;;;;;5066358;28;20130;-77
2022/12/11 07:11:31;;;;;;;55.92;24.63;;;1.10;99.90;;;;;;5068621;28;20150;-76
2022/12/11 07:14:00;;;;;;;54.45;24.75;;;1.10;99.90;;;;;;5089648;28;20032;-77
2022/12/11 07:16:26;;;;;;;52.80;24.15;;;1.20;99.90;;;;;;5090477;28;20744;-77
2022/12/11 07:18:52;;;;;;;54.90;24.88;;;1.20;99.90;;;;;;5067165;28;20036;-77
2022/12/11 07:21:19;;;;;;;56.42;24.95;;;1.20;99.90;;;;;;5100528;27;20052;-77
2022/12/11 07:23:45;;;;;;;52.33;24.55;;;1.20;99.90;;;;;;5070214;28;20043;-77
2022/12/11 07:26:14;;;;;;;51.75;22.88;;;1.20;99.90;;;;;;5069391;28;20093;-77
2022/12/11 07:28:41;;;;;;;54.45;22.77;;;1.20;99.90;;;;;;5069615;28;20129;-77
2022/12/11 07:31:12;;;;;;;50.07;23.57;;;1.20;99.90;;;;;;5067585;28;20048;-77
2022/12/11 07:33:38;;;;;;;48.83;22.52;;;1.20;99.90;;;;;;5103959;28;20078;-77
2022/12/11 07:36:05;;;;;;;53.38;23.85;;;1.20;99.90;;;;;;5084305;28;20044;-77
2022/12/11 07:38:31;;;;;;;48.22;23.13;;;1.20;99.90;;;;;;5106380;27;20070;-77
2022/12/11 07:41:05;;;;;;;50.53;23.15;;;1.10;99.90;;;;;;5082208;28;20398;-77
2022/12/11 07:43:34;;;;;;;51.72;23.98;;;1.20;99.90;;;;;;5087398;28;20047;-77
2022/12/11 07:46:12;;;;;;;51.17;24.08;;;1.20;99.90;;;;;;5084703;28;20039;-77
2022/12/11 07:48:40;;;;;;;55.33;22.95;;;1.20;99.90;;;;;;5067465;28;20182;-77
2022/12/11 07:51:13;;;;;;;50.83;22.73;;;1.20;99.90;;;;;;5068610;28;20498;-77
2022/12/11 07:53:40;;;;;;;46.63;21.83;;;1.20;99.90;;;;;;5090226;28;20047;-77
2022/12/11 07:56:07;;;;;;;51.42;24.38;;;1.20;99.90;;;;;;5066184;28;20039;-77
2022/12/11 07:58:32;;;;;;;49.25;22.70;;;1.20;99.90;;;;;;5066399;28;20048;-77
2022/12/11 08:00:58;;;;;;;49.67;23.15;;;1.10;99.90;;;;;;5066473;28;20047;-78
2022/12/11 08:03:24;;;;;;;48.58;23.63;;;1.20;99.90;;;;;;5081489;28;22119;-76
2022/12/11 08:05:51;;;;;;;52.03;23.08;;;1.20;99.90;;;;;;5071030;28;20082;-83
2022/12/11 08:08:17;;;;;;;50.10;22.57;;;1.20;99.90;;;;;;5089675;28;20071;-82
2022/12/11 08:10:43;;;;;;;53.70;22.67;;;1.20;99.90;;;;;;5103283;27;20742;-73
2022/12/11 08:13:10;;;;;;;52.72;23.83;;;1.30;99.90;;;;;;5085080;28;20378;-81
2022/12/11 08:15:36;;;;;;;47.05;24.13;;;1.30;99.90;;;;;;5067014;28;20051;-76
2022/12/11 08:18:02;;;;;;;51.42;22.15;;;1.20;99.90;;;;;;5066734;28;20055;-76
2022/12/11 08:20:27;;;;;;;51.17;22.88;;;1.20;99.90;;;;;;5068441;28;20032;-80
2022/12/11 08:22:53;;;;;;;48.45;23.20;;;1.20;99.90;;;;;;5070645;28;20040;-79
2022/12/11 08:25:19;;;;;;;49.58;22.98;;;1.20;99.90;;;;;;5069909;28;20587;-81
2022/12/11 08:27:44;;;;;;;57.20;23.83;;;1.20;99.90;;;;;;5070922;28;20125;-79
2022/12/11 08:30:10;;;;;;;50.40;24.05;;;1.20;99.90;;;;;;5104645;28;20418;-78
2022/12/11 08:32:36;;;;;;;43.45;22.30;;;1.20;99.90;;;;;;5066250;28;20062;-77
2022/12/11 08:35:01;;;;;;;51.47;24.67;;;1.30;99.90;;;;;;5086572;28;20508;-79
2022/12/11 08:37:28;;;;;;;54.42;25.05;;;1.30;99.90;;;;;;5103853;28;20130;-82
2022/12/11 08:39:54;;;;;;;53.55;24.70;;;1.30;99.90;;;;;;5084976;28;20036;-80
2022/12/11 08:42:20;;;;;;;49.60;24.40;;;1.20;99.90;;;;;;5090153;28;20491;-81
2022/12/11 08:44:45;;;;;;;52.22;23.77;;;1.20;99.90;;;;;;5079081;28;20098;-79
2022/12/11 08:47:11;;;;;;;50.58;24.35;;;1.20;99.90;;;;;;5083000;28;20423;-79
2022/12/11 08:49:37;;;;;;;52.58;24.50;;;1.30;99.90;;;;;;5105510;28;20044;-80
2022/12/11 08:52:04;;;;;;;53.38;22.88;;;1.30;99.90;;;;;;5065836;28;20082;-74
2022/12/11 08:54:30;;;;;;;51.25;23.00;;;1.30;99.90;;;;;;5082558;28;20059;-71
2022/12/11 08:56:56;;;;;;;54.50;23.40;;;1.30;99.90;;;;;;5085659;28;20136;-71
2022/12/11 08:59:22;;;;;;;50.92;23.77;;;1.30;99.90;;;;;;5071811;28;20115;-71
2022/12/11 09:01:48;;;;;;;47.75;23.48;;;1.30;99.90;;;;;;5088203;28;20119;-71
2022/12/11 09:04:13;;;;;;;47.38;21.88;;;1.30;99.90;;;;;;5071804;28;20089;-71
2022/12/11 09:06:39;;;;;;;51.00;23.95;;;1.30;99.90;;;;;;5080451;28;20036;-70
2022/12/11 09:09:05;;;;;;;47.97;22.13;;;1.40;99.90;;;;;;5088679;28;20039;-71
2022/12/11 09:11:34;;;;;;;48.67;23.50;;;1.30;99.90;;;;;;5086950;28;20048;-71
2022/12/11 09:14:01;;;;;;;46.78;23.90;;;1.30;99.90;;;;;;5104126;28;20143;-71
2022/12/11 09:16:27;;;;;;;52.35;24.02;;;1.30;99.90;;;;;;5089171;28;20612;-71
2022/12/11 09:18:56;;;;;;;48.40;23.95;;;1.30;99.90;;;;;;5089099;28;20044;-71
2022/12/11 09:21:24;;;;;;;49.42;24.10;;;1.30;99.90;;;;;;5095774;28;20071;-71
2022/12/11 09:23:59;;;;;;;82.88;42.83;;;1.30;99.90;;;;;;5084750;28;20054;-71
2022/12/11 09:26:26;;;;;;;67.53;33.78;;;1.30;99.90;;;;;;5086851;28;20089;-71
2022/12/11 09:28:52;;;;;;;51.27;26.63;;;1.30;99.90;;;;;;5068935;28;20040;-72
2022/12/11 09:31:27;;;;;;;51.25;23.17;;;1.40;99.90;;;;;;5087684;28;20127;-71
2022/12/11 09:33:58;;;;;;;48.10;22.83;;;1.40;99.90;;;;;;5085585;28;20077;-71
2022/12/11 09:36:25;;;;;;;49.85;23.08;;;1.40;99.90;;;;;;5093007;27;20040;-71
2022/12/11 09:38:51;;;;;;;50.33;25.17;;;1.40;99.90;;;;;;5086845;28;20055;-71
2022/12/11 09:41:20;;;;;;;48.95;24.20;;;1.40;99.90;;;;;;5086875;28;20036;-71
2022/12/11 09:44:15;;;;;;;48.00;23.02;;;1.40;99.90;;;;;;5088243;28;20151;-71
2022/12/11 09:46:42;;;;;;;53.05;25.23;;;1.40;99.90;;;;;;5099252;28;20075;-71
2022/12/11 09:49:28;;;;;;;49.75;23.83;;;1.40;99.90;;;;;;5102272;28;20055;-71
2022/12/11 09:52:10;;;;;;;54.20;24.20;;;1.40;99.90;;;;;;5062629;28;20131;-71
2022/12/11 09:54:43;;;;;;;51.22;24.80;;;1.40;99.90;;;;;;5086800;28;20040;-71
2022/12/11 09:57:32;;;;;;;47.75;23.02;;;1.40;99.90;;;;;;5087759;28;20031;-71
2022/12/11 10:00:13;;;;;;;51.60;24.15;;;1.40;99.90;;;;;;5087154;28;20399;-71
2022/12/11 10:02:54;;;;;;;53.25;25.23;;;1.40;99.90;;;;;;5069801;28;20093;-70
2022/12/11 10:05:31;;;;;;;55.40;25.25;;;1.40;99.90;;;;;;5088470;28;20047;-70
2022/12/11 10:08:49;;;;;;;56.42;25.63;;;1.40;99.90;;;;;;5099941;28;20036;-71
2022/12/11 10:11:32;;;;;;;50.92;24.52;;;1.40;99.90;;;;;;4995136;28;20045;-72
2022/12/11 10:14:36;;;;;;;48.58;24.38;;;1.40;99.90;;;;;;5095446;28;20495;-72
2022/12/11 10:17:10;;;;;;;50.78;23.27;;;1.50;99.90;;;;;;5064020;28;20044;-73
2022/12/11 10:19:36;;;;;;;48.90;23.60;;;1.40;99.90;;;;;;5100980;28;20052;-73
2022/12/11 10:22:02;;;;;;;52.22;25.17;;;1.40;99.90;;;;;;5103350;28;20036;-74
2022/12/11 10:24:43;;;;;;;54.17;24.75;;;1.40;99.90;;;;;;5066992;28;20506;-78
2022/12/11 10:27:22;;;;;;;54.25;23.40;;;1.50;99.90;;;;;;5088340;28;20062;-76
2022/12/11 10:29:56;;;;;;;52.67;24.73;;;1.50;99.90;;;;;;5078692;28;20065;-74
2022/12/11 10:32:26;;;;;;;48.22;23.05;;;1.50;99.90;;;;;;5095482;28;20199;-75
2022/12/11 10:35:01;;;;;;;54.17;25.85;;;1.50;99.90;;;;;;5066337;28;20051;-73
2022/12/11 10:37:27;;;;;;;49.05;24.85;;;1.60;99.90;;;;;;5098326;28;20044;-77
2022/12/11 10:39:53;;;;;;;52.15;24.58;;;1.50;99.90;;;;;;5081071;28;20092;-81
2022/12/11 10:42:21;;;;;;;52.20;25.38;;;1.60;99.90;;;;;;5079495;28;20032;-77
2022/12/11 10:44:59;;;;;;;50.13;24.63;;;1.60;99.90;;;;;;5086279;28;20040;-75
2022/12/11 10:47:25;;;;;;;46.55;24.75;;;1.70;99.90;;;;;;5083459;28;20047;-81
2022/12/11 10:50:00;;;;;;;50.40;24.33;;;1.60;99.90;;;;;;5055076;28;20056;-76
2022/12/11 10:52:42;;;;;;;53.55;25.83;;;1.60;99.90;;;;;;5082676;28;20495;-77
2022/12/11 10:55:24;;;;;;;53.85;25.38;;;1.60;99.90;;;;;;5088158;28;20048;-78
2022/12/11 10:57:59;;;;;;;47.95;24.13;;;1.60;99.90;;;;;;5079311;28;20044;-77
2022/12/11 11:00:30;;;;;;;53.53;24.88;;;1.60;99.90;;;;;;5065626;28;20048;-76
2022/12/11 11:02:57;;;;;;;57.60;26.98;;;1.70;99.90;;;;;;5086109;28;20395;-78
2022/12/11 11:05:33;;;;;;;49.47;24.98;;;1.70;99.90;;;;;;5060856;28;20043;-79
2022/12/11 11:08:15;;;;;;;47.70;24.73;;;1.70;99.90;;;;;;5084997;28;20200;-80
2022/12/11 11:10:59;;;;;;;50.50;24.55;;;1.60;99.90;;;;;;5083786;28;20041;-78
2022/12/11 11:13:30;;;;;;;50.35;25.13;;;1.60;99.90;;;;;;5081752;28;20039;-80
2022/12/11 11:16:00;;;;;;;50.10;23.83;;;1.60;99.90;;;;;;5063947;28;20089;-79
2022/12/11 11:18:28;;;;;;;52.20;24.70;;;1.60;99.90;;;;;;5079746;28;20072;-83
2022/12/11 11:20:54;;;;;;;46.50;23.48;;;1.60;99.90;;;;;;5084216;28;20047;-79
2022/12/11 11:23:21;;;;;;;50.80;24.52;;;1.60;99.90;;;;;;5061149;28;20039;-82
2022/12/11 11:26:05;;;;;;;49.23;23.97;;;1.70;99.90;;;;;;5080526;28;20059;-79
2022/12/11 11:28:36;;;;;;;52.08;25.00;;;1.60;99.90;;;;;;5082372;28;20071;-81
2022/12/11 11:31:11;;;;;;;47.80;23.77;;;1.60;99.90;;;;;;5095648;28;20468;-78
2022/12/11 11:33:55;;;;;;;49.58;24.25;;;1.70;99.90;;;;;;5063716;28;20044;-78
2022/12/11 11:36:29;;;;;;;45.95;23.50;;;1.70;99.90;;;;;;5059681;28;20047;-78
2022/12/11 11:39:18;;;;;;;47.10;23.92;;;1.70;99.90;;;;;;5082003;28;20059;-79
2022/12/11 11:42:11;;;;;;;47.78;23.58;;;1.70;99.90;;;;;;5076654;28;20044;-80
2022/12/11 11:44:43;;;;;;;47.28;23.77;;;1.70;99.90;;;;;;5082249;28;20101;-76
2022/12/11 11:47:26;;;;;;;51.70;24.27;;;1.70;99.90;;;;;;5068732;28;20055;-77
2022/12/11 11:49:54;;;;;;;60.72;27.08;;;1.70;99.90;;;;;;5053378;28;20135;-81
2022/12/11 11:52:44;;;;;;;124.90;61.65;;;1.70;99.90;;;;;;5083959;28;20047;-79
2022/12/11 11:55:12;;;;;;;93.32;47.95;;;1.70;99.90;;;;;;5085783;28;20773;-78
2022/12/11 11:57:48;;;;;;;92.10;45.75;;;1.70;99.90;;;;;;5089960;28;20048;-79
2022/12/11 12:00:21;;;;;;;55.33;29.88;;;1.80;99.90;;;;;;5091452;28;20036;-81
2022/12/11 12:03:15;;;;;;;53.97;28.17;;;1.70;99.90;;;;;;5084707;28;20036;-84
2022/12/11 12:06:06;;;;;;;46.63;24.83;;;1.70;99.90;;;;;;5063946;28;20055;-80
2022/12/11 12:08:50;;;;;;;48.88;27.10;;;1.70;99.90;;;;;;5080547;28;20051;-73
2022/12/11 12:11:40;;;;;;;44.28;24.08;;;1.70;99.90;;;;;;5062011;28;20129;-71
2022/12/11 12:14:18;;;;;;;44.70;21.75;;;1.70;99.90;;;;;;5070251;28;20092;-73
2022/12/11 12:17:07;;;;;;;48.00;23.70;;;1.70;99.90;;;;;;5086366;28;20032;-72
2022/12/11 12:19:42;;;;;;;48.70;24.48;;;1.70;99.90;;;;;;5089741;28;20059;-72
2022/12/11 12:22:24;;;;;;;47.40;24.35;;;1.70;99.90;;;;;;5089450;28;20063;-73
2022/12/11 12:24:59;;;;;;;49.28;24.05;;;1.70;99.90;;;;;;5087205;28;20122;-72
2022/12/11 12:27:49;;;;;;;42.53;22.45;;;1.70;99.90;;;;;;5089913;28;20131;-73
2022/12/11 12:30:18;;;;;;;43.63;22.75;;;1.70;99.90;;;;;;5070960;28;20040;-72
2022/12/11 12:32:52;;;;;;;48.30;23.45;;;1.70;99.90;;;;;;5089110;28;20543;-73
2022/12/11 12:35:36;;;;;;;46.33;22.27;;;1.70;99.90;;;;;;5070770;28;20044;-72
2022/12/11 12:38:21;;;;;;;50.05;25.27;;;1.70;99.90;;;;;;5100876;28;20044;-73
2022/12/11 12:41:13;;;;;;;48.10;25.63;;;1.70;99.90;;;;;;5084206;28;20071;-71
2022/12/11 12:43:46;;;;;;;47.63;23.33;;;1.70;99.90;;;;;;5085077;28;20102;-77
2022/12/11 12:46:42;;;;;;;49.35;24.95;;;1.70;99.90;;;;;;5060842;28;20095;-77
2022/12/11 12:49:15;;;;;;;48.63;23.07;;;1.70;99.90;;;;;;5083030;28;20172;-77
2022/12/11 12:51:43;;;;;;;45.83;23.15;;;1.70;99.90;;;;;;5083103;28;20052;-78
2022/12/11 12:54:14;;;;;;;49.78;24.35;;;1.70;99.90;;;;;;5059322;28;20082;-77
2022/12/11 12:56:42;;;;;;;45.40;23.65;;;1.70;99.90;;;;;;5067497;28;20403;-76
2022/12/11 12:59:37;;;;;;;47.33;22.98;;;1.70;99.90;;;;;;5086767;28;20416;-79
2022/12/11 13:02:05;;;;;;;45.85;23.40;;;1.80;99.90;;;;;;5052926;28;20134;-81
2022/12/11 13:04:45;;;;;;;;;;;1.70;99.90;;;;;;5100519;27;20039;-78
2022/12/11 13:07:22;;;;;;;49.33;21.63;;;1.70;99.90;;;;;;5076902;28;20375;-80